sensor_id;sensor_type;location;lat;lon;timestamp;P1;durP1;ratioP1;P2;durP2;ratioP2
67429;SDS011;54298;52.076;5.264;2023-04-24T00:00:07;2.5;;;1.8;;
67429;SDS011;54298;52.076;5.264;2023-04-24T00:01:45;3.8;;;1.9;;
67429;SDS011;54298;52.076;5.264;2023-04-24T00:03:21;2.7;;;1.9;;
67429;SDS011;54298;52.076;5.264;2023-04-24T00:06:34;2.9;;;2.1;;
67429;SDS011;54298;52.076;5.264;2023-04-24T00:08:11;3.0;;;2.0;;
67429;SDS011;54298;52.076;5.264;2023-04-24T00:09:47;3.3;;;2.1;;
67429;SDS011;54298;52.076;5.264;2023-04-24T00:13:02;2.5;;;1.9;;
67429;SDS011;54298;52.076;5.264;2023-04-24T00:14:38;4.1;;;2.1;;
67429;SDS011;54298;52.076;5.264;2023-04-24T00:16:14;4.91;;;2.1;;
67429;SDS011;54298;52.076;5.264;2023-04-24T00:17:50;4.5;;;2.0;;
67429;SDS011;54298;52.076;5.264;2023-04-24T00:21:04;3.9;;;2.21;;
67429;SDS011;54298;52.076;5.264;2023-04-24T00:22:41;4.2;;;2.4;;
67429;SDS011;54298;52.076;5.264;2023-04-24T00:24:16;3.3;;;2.0;;
67429;SDS011;54298;52.076;5.264;2023-04-24T00:27:30;2.9;;;1.9;;
67429;SDS011;54298;52.076;5.264;2023-04-24T00:29:07;3.8;;;2.21;;
67429;SDS011;54298;52.076;5.264;2023-04-24T00:30:44;3.8;;;2.21;;
67429;SDS011;54298;52.076;5.264;2023-04-24T00:33:57;3.3;;;2.21;;
67429;SDS011;54298;52.076;5.264;2023-04-24T00:35:34;3.2;;;2.31;;
67429;SDS011;54298;52.076;5.264;2023-04-24T00:37:10;3.0;;;2.5;;
67429;SDS011;54298;52.076;5.264;2023-04-24T00:38:46;4.0;;;2.6;;
67429;SDS011;54298;52.076;5.264;2023-04-24T00:41:58;4.3;;;2.7;;
67429;SDS011;54298;52.076;5.264;2023-04-24T00:43:36;5.2;;;3.3;;
67429;SDS011;54298;52.076;5.264;2023-04-24T00:45:12;5.9;;;3.6;;
67429;SDS011;54298;52.076;5.264;2023-04-24T00:48:26;6.6;;;3.8;;
67429;SDS011;54298;52.076;5.264;2023-04-24T00:50:03;4.7;;;3.5;;
67429;SDS011;54298;52.076;5.264;2023-04-24T00:51:42;6.0;;;3.8;;
67429;SDS011;54298;52.076;5.264;2023-04-24T00:54:55;5.8;;;3.8;;
67429;SDS011;54298;52.076;5.264;2023-04-24T00:56:32;7.4;;;3.7;;
67429;SDS011;54298;52.076;5.264;2023-04-24T00:58:10;4.7;;;3.9;;
67429;SDS011;54298;52.076;5.264;2023-04-24T00:59:47;6.1;;;4.0;;
67429;SDS011;54298;52.076;5.264;2023-04-24T01:03:00;6.2;;;3.9;;
67429;SDS011;54298;52.076;5.264;2023-04-24T01:04:40;7.1;;;4.2;;
67429;SDS011;54298;52.076;5.264;2023-04-24T01:06:18;6.0;;;4.61;;
67429;SDS011;54298;52.076;5.264;2023-04-24T01:09:33;5.9;;;4.0;;
67429;SDS011;54298;52.076;5.264;2023-04-24T01:11:11;6.4;;;4.3;;
67429;SDS011;54298;52.076;5.264;2023-04-24T01:12:47;7.2;;;4.41;;
67429;SDS011;54298;52.076;5.264;2023-04-24T01:14:23;8.81;;;4.41;;
67429;SDS011;54298;52.076;5.264;2023-04-24T01:17:39;5.9;;;4.61;;
67429;SDS011;54298;52.076;5.264;2023-04-24T01:19:15;7.9;;;4.61;;
67429;SDS011;54298;52.076;5.264;2023-04-24T01:20:58;6.6;;;4.91;;
67429;SDS011;54298;52.076;5.264;2023-04-24T01:22:39;7.1;;;5.0;;
67429;SDS011;54298;52.076;5.264;2023-04-24T01:25:53;8.31;;;5.2;;
67429;SDS011;54298;52.076;5.264;2023-04-24T01:27:31;6.9;;;5.11;;
67429;SDS011;54298;52.076;5.264;2023-04-24T01:29:08;7.4;;;5.11;;
67429;SDS011;54298;52.076;5.264;2023-04-24T01:32:22;6.9;;;5.8;;
67429;SDS011;54298;52.076;5.264;2023-04-24T01:33:59;10.3;;;6.1;;
67429;SDS011;54298;52.076;5.264;2023-04-24T01:35:35;8.5;;;6.0;;
67429;SDS011;54298;52.076;5.264;2023-04-24T01:38:50;7.3;;;5.9;;
67429;SDS011;54298;52.076;5.264;2023-04-24T01:40:27;8.0;;;6.1;;
67429;SDS011;54298;52.076;5.264;2023-04-24T01:42:04;6.8;;;6.2;;
67429;SDS011;54298;52.076;5.264;2023-04-24T01:43:41;8.2;;;6.5;;
67429;SDS011;54298;52.076;5.264;2023-04-24T01:46:55;8.0;;;7.2;;
67429;SDS011;54298;52.076;5.264;2023-04-24T01:48:31;7.3;;;6.6;;
67429;SDS011;54298;52.076;5.264;2023-04-24T01:50:10;7.0;;;5.8;;
67429;SDS011;54298;52.076;5.264;2023-04-24T01:53:24;5.3;;;4.3;;
67429;SDS011;54298;52.076;5.264;2023-04-24T01:55:02;5.8;;;4.61;;
67429;SDS011;54298;52.076;5.264;2023-04-24T01:56:40;7.5;;;4.91;;
67429;SDS011;54298;52.076;5.264;2023-04-24T01:58:18;5.4;;;4.8;;
67429;SDS011;54298;52.076;5.264;2023-04-24T02:01:33;6.0;;;5.11;;
67429;SDS011;54298;52.076;5.264;2023-04-24T02:03:11;5.4;;;4.91;;
67429;SDS011;54298;52.076;5.264;2023-04-24T02:04:47;5.9;;;5.0;;
67429;SDS011;54298;52.076;5.264;2023-04-24T02:07:59;5.9;;;5.3;;
67429;SDS011;54298;52.076;5.264;2023-04-24T02:09:37;6.5;;;5.8;;
67429;SDS011;54298;52.076;5.264;2023-04-24T02:11:13;6.7;;;5.5;;
67429;SDS011;54298;52.076;5.264;2023-04-24T02:14:26;6.8;;;5.11;;
67429;SDS011;54298;52.076;5.264;2023-04-24T02:16:02;6.8;;;5.11;;
67429;SDS011;54298;52.076;5.264;2023-04-24T02:17:38;6.7;;;4.8;;
67429;SDS011;54298;52.076;5.264;2023-04-24T02:19:15;5.7;;;5.2;;
67429;SDS011;54298;52.076;5.264;2023-04-24T02:22:29;6.4;;;5.11;;
67429;SDS011;54298;52.076;5.264;2023-04-24T02:24:05;6.7;;;5.5;;
67429;SDS011;54298;52.076;5.264;2023-04-24T02:25:42;7.1;;;5.2;;
67429;SDS011;54298;52.076;5.264;2023-04-24T02:28:55;5.3;;;4.8;;
67429;SDS011;54298;52.076;5.264;2023-04-24T02:30:31;7.5;;;5.11;;
67429;SDS011;54298;52.076;5.264;2023-04-24T02:32:09;6.3;;;4.8;;
67429;SDS011;54298;52.076;5.264;2023-04-24T02:35:21;6.4;;;5.2;;
67429;SDS011;54298;52.076;5.264;2023-04-24T02:36:58;6.0;;;4.8;;
67429;SDS011;54298;52.076;5.264;2023-04-24T02:38:35;5.3;;;4.8;;
67429;SDS011;54298;52.076;5.264;2023-04-24T02:40:11;5.7;;;4.61;;
67429;SDS011;54298;52.076;5.264;2023-04-24T02:43:24;7.3;;;4.3;;
67429;SDS011;54298;52.076;5.264;2023-04-24T02:45:02;4.61;;;4.1;;
67429;SDS011;54298;52.076;5.264;2023-04-24T02:46:39;5.2;;;4.2;;
67429;SDS011;54298;52.076;5.264;2023-04-24T02:49:52;6.0;;;4.0;;
67429;SDS011;54298;52.076;5.264;2023-04-24T02:51:28;5.4;;;3.9;;
67429;SDS011;54298;52.076;5.264;2023-04-24T02:53:05;5.2;;;4.3;;
67429;SDS011;54298;52.076;5.264;2023-04-24T02:54:43;5.6;;;4.2;;
67429;SDS011;54298;52.076;5.264;2023-04-24T02:57:56;5.5;;;4.7;;
67429;SDS011;54298;52.076;5.264;2023-04-24T02:59:32;6.0;;;4.5;;
67429;SDS011;54298;52.076;5.264;2023-04-24T03:01:08;7.0;;;5.4;;
67429;SDS011;54298;52.076;5.264;2023-04-24T03:04:22;6.0;;;5.4;;
67429;SDS011;54298;52.076;5.264;2023-04-24T03:05:59;6.3;;;5.7;;
67429;SDS011;54298;52.076;5.264;2023-04-24T03:07:35;7.7;;;5.9;;
67429;SDS011;54298;52.076;5.264;2023-04-24T03:10:49;7.1;;;6.3;;
67429;SDS011;54298;52.076;5.264;2023-04-24T03:12:26;7.3;;;6.6;;
67429;SDS011;54298;52.076;5.264;2023-04-24T03:14:02;7.3;;;6.6;;
67429;SDS011;54298;52.076;5.264;2023-04-24T03:15:39;7.4;;;6.7;;
67429;SDS011;54298;52.076;5.264;2023-04-24T03:18:53;7.6;;;6.9;;
67429;SDS011;54298;52.076;5.264;2023-04-24T03:20:30;8.2;;;7.1;;
67429;SDS011;54298;52.076;5.264;2023-04-24T03:22:07;8.31;;;7.4;;
67429;SDS011;54298;52.076;5.264;2023-04-24T03:25:20;7.8;;;7.1;;
67429;SDS011;54298;52.076;5.264;2023-04-24T03:26:57;8.71;;;7.7;;
67429;SDS011;54298;52.076;5.264;2023-04-24T03:28:34;8.2;;;7.1;;
67429;SDS011;54298;52.076;5.264;2023-04-24T03:31:49;8.71;;;7.8;;
67429;SDS011;54298;52.076;5.264;2023-04-24T03:33:25;8.6;;;7.8;;
67429;SDS011;54298;52.076;5.264;2023-04-24T03:35:02;8.81;;;8.0;;
67429;SDS011;54298;52.076;5.264;2023-04-24T03:36:39;10.6;;;9.6;;
67429;SDS011;54298;52.076;5.264;2023-04-24T03:39:51;9.1;;;8.31;;
67429;SDS011;54298;52.076;5.264;2023-04-24T03:41:29;9.31;;;8.4;;
67429;SDS011;54298;52.076;5.264;2023-04-24T03:43:05;8.9;;;8.0;;
67429;SDS011;54298;52.076;5.264;2023-04-24T03:46:18;8.9;;;8.0;;
67429;SDS011;54298;52.076;5.264;2023-04-24T03:47:55;8.4;;;7.6;;
67429;SDS011;54298;52.076;5.264;2023-04-24T03:49:32;7.7;;;6.9;;
67429;SDS011;54298;52.076;5.264;2023-04-24T03:52:45;8.0;;;7.0;;
67429;SDS011;54298;52.076;5.264;2023-04-24T03:54:23;7.3;;;6.6;;
67429;SDS011;54298;52.076;5.264;2023-04-24T03:55:59;8.31;;;7.3;;
67429;SDS011;54298;52.076;5.264;2023-04-24T03:57:35;8.0;;;7.3;;
67429;SDS011;54298;52.076;5.264;2023-04-24T04:00:48;8.0;;;7.2;;
67429;SDS011;54298;52.076;5.264;2023-04-24T04:02:25;7.6;;;6.8;;
67429;SDS011;54298;52.076;5.264;2023-04-24T04:04:01;8.71;;;6.1;;
67429;SDS011;54298;52.076;5.264;2023-04-24T04:07:15;6.1;;;5.3;;
67429;SDS011;54298;52.076;5.264;2023-04-24T04:08:52;6.4;;;5.6;;
67429;SDS011;54298;52.076;5.264;2023-04-24T04:10:29;7.6;;;6.8;;
67429;SDS011;54298;52.076;5.264;2023-04-24T04:12:06;7.5;;;6.7;;
67429;SDS011;54298;52.076;5.264;2023-04-24T04:15:20;7.4;;;6.2;;
67429;SDS011;54298;52.076;5.264;2023-04-24T04:16:57;8.81;;;7.3;;
67429;SDS011;54298;52.076;5.264;2023-04-24T04:18:34;8.6;;;7.1;;
67429;SDS011;54298;52.076;5.264;2023-04-24T04:21:47;9.1;;;6.8;;
67429;SDS011;54298;52.076;5.264;2023-04-24T04:23:23;9.21;;;7.4;;
67429;SDS011;54298;52.076;5.264;2023-04-24T04:24:59;9.21;;;7.5;;
67429;SDS011;54298;52.076;5.264;2023-04-24T04:28:14;7.2;;;6.3;;
67429;SDS011;54298;52.076;5.264;2023-04-24T04:29:51;9.0;;;7.3;;
67429;SDS011;54298;52.076;5.264;2023-04-24T04:31:27;7.5;;;6.6;;
67429;SDS011;54298;52.076;5.264;2023-04-24T04:33:03;10.21;;;7.4;;
67429;SDS011;54298;52.076;5.264;2023-04-24T04:36:15;10.21;;;7.7;;
67429;SDS011;54298;52.076;5.264;2023-04-24T04:37:51;9.4;;;7.1;;
67429;SDS011;54298;52.076;5.264;2023-04-24T04:39:27;8.5;;;6.3;;
67429;SDS011;54298;52.076;5.264;2023-04-24T04:42:40;8.4;;;5.8;;
67429;SDS011;54298;52.076;5.264;2023-04-24T04:44:16;8.1;;;6.5;;
67429;SDS011;54298;52.076;5.264;2023-04-24T04:45:52;7.2;;;5.6;;
67429;SDS011;54298;52.076;5.264;2023-04-24T04:49:04;6.8;;;5.2;;
67429;SDS011;54298;52.076;5.264;2023-04-24T04:50:40;5.7;;;4.91;;
67429;SDS011;54298;52.076;5.264;2023-04-24T04:52:16;6.0;;;5.2;;
67429;SDS011;54298;52.076;5.264;2023-04-24T04:55:30;6.2;;;4.91;;
67429;SDS011;54298;52.076;5.264;2023-04-24T04:57:06;8.31;;;4.61;;
67429;SDS011;54298;52.076;5.264;2023-04-24T04:58:42;7.0;;;5.4;;
67429;SDS011;54298;52.076;5.264;2023-04-24T05:00:18;8.31;;;6.0;;
67429;SDS011;54298;52.076;5.264;2023-04-24T05:03:31;6.8;;;5.2;;
67429;SDS011;54298;52.076;5.264;2023-04-24T05:05:07;7.6;;;5.5;;
67429;SDS011;54298;52.076;5.264;2023-04-24T05:09:57;7.0;;;5.8;;
67429;SDS011;54298;52.076;5.264;2023-04-24T05:11:33;9.5;;;5.8;;
67429;SDS011;54298;52.076;5.264;2023-04-24T05:13:09;7.6;;;6.2;;
67429;SDS011;54298;52.076;5.264;2023-04-24T05:16:21;7.9;;;6.0;;
67429;SDS011;54298;52.076;5.264;2023-04-24T05:17:57;8.6;;;5.9;;
67429;SDS011;54298;52.076;5.264;2023-04-24T05:19:34;7.5;;;6.3;;
67429;SDS011;54298;52.076;5.264;2023-04-24T05:21:10;8.9;;;6.4;;
67429;SDS011;54298;52.076;5.264;2023-04-24T05:24:23;11.6;;;8.4;;
67429;SDS011;54298;52.076;5.264;2023-04-24T05:25:59;8.9;;;7.6;;
67429;SDS011;54298;52.076;5.264;2023-04-24T05:27:35;9.9;;;8.4;;
67429;SDS011;54298;52.076;5.264;2023-04-24T05:30:48;9.4;;;7.7;;
67429;SDS011;54298;52.076;5.264;2023-04-24T05:32:24;10.21;;;7.8;;
67429;SDS011;54298;52.076;5.264;2023-04-24T05:34:00;9.0;;;8.1;;
67429;SDS011;54298;52.076;5.264;2023-04-24T05:37:13;7.6;;;6.7;;
67429;SDS011;54298;52.076;5.264;2023-04-24T05:38:49;9.31;;;7.1;;
67429;SDS011;54298;52.076;5.264;2023-04-24T05:40:25;12.0;;;7.0;;
67429;SDS011;54298;52.076;5.264;2023-04-24T05:43:38;14.5;;;9.5;;
67429;SDS011;54298;52.076;5.264;2023-04-24T05:45:14;12.1;;;8.1;;
67429;SDS011;54298;52.076;5.264;2023-04-24T05:46:50;12.7;;;9.5;;
67429;SDS011;54298;52.076;5.264;2023-04-24T05:48:26;13.0;;;9.4;;
67429;SDS011;54298;52.076;5.264;2023-04-24T05:51:41;7.4;;;5.0;;
67429;SDS011;54298;52.076;5.264;2023-04-24T05:53:17;9.5;;;4.1;;
67429;SDS011;54298;52.076;5.264;2023-04-24T05:54:53;7.3;;;5.4;;
67429;SDS011;54298;52.076;5.264;2023-04-24T05:58:06;8.4;;;2.6;;
67429;SDS011;54298;52.076;5.264;2023-04-24T05:59:42;3.3;;;2.0;;
67429;SDS011;54298;52.076;5.264;2023-04-24T06:01:18;3.8;;;2.0;;
67429;SDS011;54298;52.076;5.264;2023-04-24T06:04:31;5.5;;;1.8;;
67429;SDS011;54298;52.076;5.264;2023-04-24T06:06:08;17.61;;;12.8;;
67429;SDS011;54298;52.076;5.264;2023-04-24T06:07:44;6.2;;;4.0;;
67429;SDS011;54298;52.076;5.264;2023-04-24T06:09:20;3.6;;;1.6;;
67429;SDS011;54298;52.076;5.264;2023-04-24T06:12:32;4.91;;;1.3;;
67429;SDS011;54298;52.076;5.264;2023-04-24T06:14:09;4.3;;;1.7;;
67429;SDS011;54298;52.076;5.264;2023-04-24T06:15:45;2.9;;;1.4;;
67429;SDS011;54298;52.076;5.264;2023-04-24T06:18:57;3.5;;;1.2;;
67429;SDS011;54298;52.076;5.264;2023-04-24T06:20:33;4.1;;;1.3;;
67429;SDS011;54298;52.076;5.264;2023-04-24T06:22:09;4.3;;;1.5;;
67429;SDS011;54298;52.076;5.264;2023-04-24T06:25:24;3.2;;;1.4;;
67429;SDS011;54298;52.076;5.264;2023-04-24T06:27:01;3.2;;;1.4;;
67429;SDS011;54298;52.076;5.264;2023-04-24T06:28:37;6.0;;;3.6;;
67429;SDS011;54298;52.076;5.264;2023-04-24T06:30:13;8.5;;;5.2;;
67429;SDS011;54298;52.076;5.264;2023-04-24T06:33:26;4.41;;;2.4;;
67429;SDS011;54298;52.076;5.264;2023-04-24T06:35:02;6.5;;;4.61;;
67429;SDS011;54298;52.076;5.264;2023-04-24T06:36:39;12.0;;;6.8;;
67429;SDS011;54298;52.076;5.264;2023-04-24T06:39:52;10.1;;;7.5;;
67429;SDS011;54298;52.076;5.264;2023-04-24T06:41:28;13.2;;;8.9;;
67429;SDS011;54298;52.076;5.264;2023-04-24T06:43:04;17.5;;;11.1;;
67429;SDS011;54298;52.076;5.264;2023-04-24T06:46:16;15.7;;;11.1;;
67429;SDS011;54298;52.076;5.264;2023-04-24T06:47:52;17.41;;;11.4;;
67429;SDS011;54298;52.076;5.264;2023-04-24T06:49:28;17.5;;;13.2;;
67429;SDS011;54298;52.076;5.264;2023-04-24T06:51:04;18.11;;;12.8;;
67429;SDS011;54298;52.076;5.264;2023-04-24T06:54:17;22.6;;;14.3;;
67429;SDS011;54298;52.076;5.264;2023-04-24T06:55:53;23.1;;;15.5;;
67429;SDS011;54298;52.076;5.264;2023-04-24T06:57:29;20.9;;;14.6;;
67429;SDS011;54298;52.076;5.264;2023-04-24T07:00:42;23.8;;;15.4;;
67429;SDS011;54298;52.076;5.264;2023-04-24T07:02:18;24.1;;;16.4;;
67429;SDS011;54298;52.076;5.264;2023-04-24T07:03:54;22.3;;;14.4;;
67429;SDS011;54298;52.076;5.264;2023-04-24T07:07:07;23.3;;;14.0;;
67429;SDS011;54298;52.076;5.264;2023-04-24T07:08:43;23.8;;;14.8;;
67429;SDS011;54298;52.076;5.264;2023-04-24T07:10:19;25.2;;;14.1;;
67429;SDS011;54298;52.076;5.264;2023-04-24T07:13:31;23.5;;;14.9;;
67429;SDS011;54298;52.076;5.264;2023-04-24T07:15:08;25.0;;;13.9;;
67429;SDS011;54298;52.076;5.264;2023-04-24T07:16:45;20.2;;;12.5;;
67429;SDS011;54298;52.076;5.264;2023-04-24T07:18:22;24.1;;;13.6;;
67429;SDS011;54298;52.076;5.264;2023-04-24T07:21:34;20.6;;;13.5;;
67429;SDS011;54298;52.076;5.264;2023-04-24T07:23:10;26.0;;;14.5;;
67429;SDS011;54298;52.076;5.264;2023-04-24T07:24:46;25.5;;;14.4;;
67429;SDS011;54298;52.076;5.264;2023-04-24T07:27:59;23.2;;;13.3;;
67429;SDS011;54298;52.076;5.264;2023-04-24T07:29:35;23.2;;;13.3;;
67429;SDS011;54298;52.076;5.264;2023-04-24T07:31:12;27.3;;;14.4;;
67429;SDS011;54298;52.076;5.264;2023-04-24T07:34:25;24.1;;;14.6;;
67429;SDS011;54298;52.076;5.264;2023-04-24T07:36:01;28.8;;;17.41;;
67429;SDS011;54298;52.076;5.264;2023-04-24T07:37:37;41.5;;;26.9;;
67429;SDS011;54298;52.076;5.264;2023-04-24T07:39:14;25.0;;;13.5;;
67429;SDS011;54298;52.076;5.264;2023-04-24T07:42:28;24.5;;;13.9;;
67429;SDS011;54298;52.076;5.264;2023-04-24T07:44:04;25.7;;;14.0;;
67429;SDS011;54298;52.076;5.264;2023-04-24T07:45:40;27.1;;;15.0;;
67429;SDS011;54298;52.076;5.264;2023-04-24T07:48:52;26.6;;;13.3;;
67429;SDS011;54298;52.076;5.264;2023-04-24T07:50:28;25.0;;;13.8;;
67429;SDS011;54298;52.076;5.264;2023-04-24T07:52:05;27.1;;;11.9;;
67429;SDS011;54298;52.076;5.264;2023-04-24T07:55:19;27.6;;;11.7;;
67429;SDS011;54298;52.076;5.264;2023-04-24T07:56:56;27.3;;;11.2;;
67429;SDS011;54298;52.076;5.264;2023-04-24T07:58:32;32.0;;;11.7;;
67429;SDS011;54298;52.076;5.264;2023-04-24T08:00:08;34.4;;;11.5;;
67429;SDS011;54298;52.076;5.264;2023-04-24T08:03:21;35.0;;;12.2;;
67429;SDS011;54298;52.076;5.264;2023-04-24T08:04:57;33.3;;;10.8;;
67429;SDS011;54298;52.076;5.264;2023-04-24T08:06:34;34.81;;;11.8;;
67429;SDS011;54298;52.076;5.264;2023-04-24T08:09:46;32.6;;;10.8;;
67429;SDS011;54298;52.076;5.264;2023-04-24T08:11:22;34.0;;;10.21;;
67429;SDS011;54298;52.076;5.264;2023-04-24T08:12:59;39.71;;;13.6;;
67429;SDS011;54298;52.076;5.264;2023-04-24T08:16:11;31.7;;;9.0;;
67429;SDS011;54298;52.076;5.264;2023-04-24T08:17:47;31.8;;;8.5;;
67429;SDS011;54298;52.076;5.264;2023-04-24T08:19:24;31.7;;;9.1;;
67429;SDS011;54298;52.076;5.264;2023-04-24T08:21:00;34.21;;;8.71;;
67429;SDS011;54298;52.076;5.264;2023-04-24T08:24:12;26.1;;;8.81;;
67429;SDS011;54298;52.076;5.264;2023-04-24T08:25:48;27.1;;;7.7;;
67429;SDS011;54298;52.076;5.264;2023-04-24T08:27:25;44.8;;;20.5;;
67429;SDS011;54298;52.076;5.264;2023-04-24T08:30:38;30.5;;;8.5;;
67429;SDS011;54298;52.076;5.264;2023-04-24T08:32:15;28.3;;;8.81;;
67429;SDS011;54298;52.076;5.264;2023-04-24T08:33:51;37.1;;;14.3;;
67429;SDS011;54298;52.076;5.264;2023-04-24T08:37:03;31.0;;;9.21;;
67429;SDS011;54298;52.076;5.264;2023-04-24T08:38:39;26.4;;;6.7;;
67429;SDS011;54298;52.076;5.264;2023-04-24T08:40:16;28.0;;;5.9;;
67429;SDS011;54298;52.076;5.264;2023-04-24T08:43:29;26.6;;;8.0;;
67429;SDS011;54298;52.076;5.264;2023-04-24T08:45:09;25.9;;;7.1;;
67429;SDS011;54298;52.076;5.264;2023-04-24T08:46:47;23.1;;;5.4;;
67429;SDS011;54298;52.076;5.264;2023-04-24T08:48:24;20.8;;;5.4;;
67429;SDS011;54298;52.076;5.264;2023-04-24T08:51:38;23.8;;;6.0;;
67429;SDS011;54298;52.076;5.264;2023-04-24T08:53:16;24.1;;;5.7;;
67429;SDS011;54298;52.076;5.264;2023-04-24T08:54:53;21.2;;;5.6;;
67429;SDS011;54298;52.076;5.264;2023-04-24T08:58:10;20.8;;;5.5;;
67429;SDS011;54298;52.076;5.264;2023-04-24T08:59:46;19.61;;;5.5;;
67429;SDS011;54298;52.076;5.264;2023-04-24T09:01:22;25.5;;;8.2;;
67429;SDS011;54298;52.076;5.264;2023-04-24T09:03:01;21.3;;;6.1;;
67429;SDS011;54298;52.076;5.264;2023-04-24T09:06:18;22.5;;;5.6;;
67429;SDS011;54298;52.076;5.264;2023-04-24T09:07:57;20.6;;;6.9;;
67429;SDS011;54298;52.076;5.264;2023-04-24T09:09:37;23.5;;;8.0;;
67429;SDS011;54298;52.076;5.264;2023-04-24T09:11:14;62.7;;;25.8;;
67429;SDS011;54298;52.076;5.264;2023-04-24T09:14:29;27.7;;;11.3;;
67429;SDS011;54298;52.076;5.264;2023-04-24T09:16:06;35.0;;;14.0;;
67429;SDS011;54298;52.076;5.264;2023-04-24T09:17:43;35.0;;;14.0;;
67429;SDS011;54298;52.076;5.264;2023-04-24T09:20:57;20.6;;;5.9;;
67429;SDS011;54298;52.076;5.264;2023-04-24T09:22:34;22.8;;;6.3;;
67429;SDS011;54298;52.076;5.264;2023-04-24T09:24:14;22.3;;;6.2;;
67429;SDS011;54298;52.076;5.264;2023-04-24T09:25:54;19.5;;;5.2;;
67429;SDS011;54298;52.076;5.264;2023-04-24T09:29:08;20.9;;;5.8;;
67429;SDS011;54298;52.076;5.264;2023-04-24T09:30:55;15.2;;;4.7;;
67429;SDS011;54298;52.076;5.264;2023-04-24T09:32:38;25.0;;;5.6;;
67429;SDS011;54298;52.076;5.264;2023-04-24T09:34:19;23.3;;;5.5;;
67429;SDS011;54298;52.076;5.264;2023-04-24T09:37:35;23.8;;;8.71;;
67429;SDS011;54298;52.076;5.264;2023-04-24T09:39:13;23.9;;;6.3;;
67429;SDS011;54298;52.076;5.264;2023-04-24T09:40:51;18.3;;;5.5;;
67429;SDS011;54298;52.076;5.264;2023-04-24T09:44:10;18.11;;;6.0;;
67429;SDS011;54298;52.076;5.264;2023-04-24T09:45:48;17.91;;;4.7;;
67429;SDS011;54298;52.076;5.264;2023-04-24T09:47:24;15.9;;;4.41;;
67429;SDS011;54298;52.076;5.264;2023-04-24T09:49:07;12.5;;;4.61;;
67429;SDS011;54298;52.076;5.264;2023-04-24T09:52:22;14.1;;;4.2;;
67429;SDS011;54298;52.076;5.264;2023-04-24T09:53:58;15.0;;;3.9;;
67429;SDS011;54298;52.076;5.264;2023-04-24T09:55:35;22.0;;;5.7;;
67429;SDS011;54298;52.076;5.264;2023-04-24T09:57:15;14.0;;;3.8;;
67429;SDS011;54298;52.076;5.264;2023-04-24T10:00:28;13.4;;;3.8;;
67429;SDS011;54298;52.076;5.264;2023-04-24T10:02:15;16.11;;;4.2;;
67429;SDS011;54298;52.076;5.264;2023-04-24T10:03:53;14.3;;;4.2;;
67429;SDS011;54298;52.076;5.264;2023-04-24T10:07:07;15.1;;;3.8;;
67429;SDS011;54298;52.076;5.264;2023-04-24T10:08:43;14.8;;;4.41;;
67429;SDS011;54298;52.076;5.264;2023-04-24T10:10:20;16.2;;;4.1;;
67429;SDS011;54298;52.076;5.264;2023-04-24T10:11:57;13.2;;;3.4;;
67429;SDS011;54298;52.076;5.264;2023-04-24T10:15:11;12.5;;;3.4;;
67429;SDS011;54298;52.076;5.264;2023-04-24T10:16:50;12.3;;;3.8;;
67429;SDS011;54298;52.076;5.264;2023-04-24T10:18:28;13.6;;;4.5;;
67429;SDS011;54298;52.076;5.264;2023-04-24T10:21:42;10.7;;;4.2;;
67429;SDS011;54298;52.076;5.264;2023-04-24T10:23:20;12.7;;;2.8;;
67429;SDS011;54298;52.076;5.264;2023-04-24T10:24:57;12.4;;;4.1;;
67429;SDS011;54298;52.076;5.264;2023-04-24T10:26:35;12.7;;;3.3;;
67429;SDS011;54298;52.076;5.264;2023-04-24T10:29:48;10.3;;;3.0;;
67429;SDS011;54298;52.076;5.264;2023-04-24T10:31:31;11.0;;;3.0;;
67429;SDS011;54298;52.076;5.264;2023-04-24T10:33:07;9.9;;;2.8;;
67429;SDS011;54298;52.076;5.264;2023-04-24T10:36:21;8.31;;;2.8;;
67429;SDS011;54298;52.076;5.264;2023-04-24T10:37:59;8.0;;;2.4;;
67429;SDS011;54298;52.076;5.264;2023-04-24T10:39:41;10.3;;;2.1;;
67429;SDS011;54298;52.076;5.264;2023-04-24T10:41:17;8.6;;;2.6;;
67429;SDS011;54298;52.076;5.264;2023-04-24T10:44:35;5.9;;;1.8;;
67429;SDS011;54298;52.076;5.264;2023-04-24T10:46:16;7.4;;;2.0;;
67429;SDS011;54298;52.076;5.264;2023-04-24T10:47:57;8.81;;;2.21;;
67429;SDS011;54298;52.076;5.264;2023-04-24T10:49:34;8.71;;;2.21;;
67429;SDS011;54298;52.076;5.264;2023-04-24T10:52:48;9.31;;;2.0;;
67429;SDS011;54298;52.076;5.264;2023-04-24T10:54:25;9.31;;;2.8;;
67429;SDS011;54298;52.076;5.264;2023-04-24T10:56:04;9.31;;;2.31;;
67429;SDS011;54298;52.076;5.264;2023-04-24T10:59:38;7.8;;;2.5;;
67429;SDS011;54298;52.076;5.264;2023-04-24T11:01:31;6.7;;;1.6;;
67429;SDS011;54298;52.076;5.264;2023-04-24T11:03:22;10.3;;;3.1;;
67429;SDS011;54298;52.076;5.264;2023-04-24T11:05:02;10.21;;;3.1;;
67429;SDS011;54298;52.076;5.264;2023-04-24T11:06:39;19.0;;;6.8;;
67429;SDS011;54298;52.076;5.264;2023-04-24T11:10:00;20.5;;;10.8;;
67429;SDS011;54298;52.076;5.264;2023-04-24T11:11:36;10.8;;;3.4;;
67429;SDS011;54298;52.076;5.264;2023-04-24T11:13:15;7.4;;;2.0;;
67429;SDS011;54298;52.076;5.264;2023-04-24T11:15:00;8.1;;;1.8;;
67429;SDS011;54298;52.076;5.264;2023-04-24T11:18:36;9.1;;;2.5;;
67429;SDS011;54298;52.076;5.264;2023-04-24T11:20:16;9.6;;;1.9;;
67429;SDS011;54298;52.076;5.264;2023-04-24T11:21:54;9.4;;;1.9;;
67429;SDS011;54298;52.076;5.264;2023-04-24T11:23:35;7.9;;;2.1;;
67429;SDS011;54298;52.076;5.264;2023-04-24T11:25:11;10.0;;;2.8;;
67429;SDS011;54298;52.076;5.264;2023-04-24T11:28:23;11.0;;;2.7;;
67429;SDS011;54298;52.076;5.264;2023-04-24T11:30:00;11.2;;;2.9;;
67429;SDS011;54298;52.076;5.264;2023-04-24T11:31:38;10.8;;;2.6;;
67429;SDS011;54298;52.076;5.264;2023-04-24T11:34:57;12.0;;;3.0;;
67429;SDS011;54298;52.076;5.264;2023-04-24T11:36:34;13.7;;;2.7;;
67429;SDS011;54298;52.076;5.264;2023-04-24T11:38:11;18.5;;;4.2;;
67429;SDS011;54298;52.076;5.264;2023-04-24T11:39:50;11.2;;;3.1;;
67429;SDS011;54298;52.076;5.264;2023-04-24T11:43:05;8.2;;;1.9;;
67429;SDS011;54298;52.076;5.264;2023-04-24T11:44:42;7.2;;;2.0;;
67429;SDS011;54298;52.076;5.264;2023-04-24T11:46:20;9.9;;;2.0;;
67429;SDS011;54298;52.076;5.264;2023-04-24T11:49:33;5.2;;;1.3;;
67429;SDS011;54298;52.076;5.264;2023-04-24T11:51:12;5.5;;;1.7;;
67429;SDS011;54298;52.076;5.264;2023-04-24T11:52:49;12.1;;;6.6;;
67429;SDS011;54298;52.076;5.264;2023-04-24T11:54:25;21.2;;;12.8;;
67429;SDS011;54298;52.076;5.264;2023-04-24T11:57:39;8.6;;;2.21;;
67429;SDS011;54298;52.076;5.264;2023-04-24T11:59:17;10.6;;;5.11;;
67429;SDS011;54298;52.076;5.264;2023-04-24T12:00:55;13.6;;;8.0;;
67429;SDS011;54298;52.076;5.264;2023-04-24T12:04:08;19.2;;;9.4;;
67429;SDS011;54298;52.076;5.264;2023-04-24T12:05:44;6.6;;;2.5;;
67429;SDS011;54298;52.076;5.264;2023-04-24T12:07:20;6.1;;;1.9;;
67429;SDS011;54298;52.076;5.264;2023-04-24T12:10:35;6.5;;;1.8;;
67429;SDS011;54298;52.076;5.264;2023-04-24T12:12:11;7.8;;;2.8;;
67429;SDS011;54298;52.076;5.264;2023-04-24T12:13:48;8.0;;;2.0;;
67429;SDS011;54298;52.076;5.264;2023-04-24T12:15:24;8.71;;;1.9;;
67429;SDS011;54298;52.076;5.264;2023-04-24T12:18:42;9.6;;;2.31;;
67429;SDS011;54298;52.076;5.264;2023-04-24T12:20:23;8.4;;;2.6;;
67429;SDS011;54298;52.076;5.264;2023-04-24T12:22:01;9.81;;;1.9;;
67429;SDS011;54298;52.076;5.264;2023-04-24T12:23:42;10.21;;;2.31;;
67429;SDS011;54298;52.076;5.264;2023-04-24T12:26:56;10.5;;;2.31;;
67429;SDS011;54298;52.076;5.264;2023-04-24T12:28:35;9.0;;;2.7;;
67429;SDS011;54298;52.076;5.264;2023-04-24T12:30:14;9.81;;;2.4;;
67429;SDS011;54298;52.076;5.264;2023-04-24T12:33:27;7.5;;;2.21;;
67429;SDS011;54298;52.076;5.264;2023-04-24T12:35:09;7.9;;;1.9;;
67429;SDS011;54298;52.076;5.264;2023-04-24T12:36:45;10.0;;;2.6;;
67429;SDS011;54298;52.076;5.264;2023-04-24T12:38:23;8.6;;;2.31;;
67429;SDS011;54298;52.076;5.264;2023-04-24T12:41:48;12.9;;;2.7;;
67429;SDS011;54298;52.076;5.264;2023-04-24T12:43:27;10.4;;;2.8;;
67429;SDS011;54298;52.076;5.264;2023-04-24T12:45:04;8.4;;;2.8;;
67429;SDS011;54298;52.076;5.264;2023-04-24T12:46:42;12.8;;;3.2;;
67429;SDS011;54298;52.076;5.264;2023-04-24T12:49:54;11.2;;;3.1;;
67429;SDS011;54298;52.076;5.264;2023-04-24T12:51:30;11.9;;;3.3;;